Jo Spirit — LARU5 — position and weather

sailwx.info

Track history (hours):
 
Tides and Currents Weather Stations Pressure Air Temp Water Temp Dewpoint Dewpoint Depression Visibility Wind Speed Wind Dir Waves Ship Positions

Jo Spirit

Last reported at 2017-Nov-28 11:39 UTC. Time now 2017-Dec-11 11:35 UTC.
Position N 45°19' E 014°28'.
Warning: this ship's position is 12 days out of date.

Length 107 m; draft 6 m.

Type: Ship (hazmat cat C). MMSI: 257826000.

Date/timePositionNaut miles runAvg speedWind from/ knotsBaromVisibWave heightAir tempDewpointWater temp
2017-Nov-28 11:39N 45°19' E 014°28'1 0.1
2017-Nov-28 00:27N 45°17' E 014°28'0 0.0
2017-Nov-27 15:03N 45°17' E 014°28'0 0.1
2017-Nov-27 15:00N 45°17' E 014°28'1 3.0
2017-Nov-27 14:30N 45°17' E 014°26'3 6.5
2017-Nov-27 14:00N 45°15' E 014°22'510.0
2017-Nov-27 13:29N 45°11' E 014°17'5 9.1
2017-Nov-27 12:55N 45°06' E 014°15'4 9.3
2017-Nov-27 12:30N 45°02' E 014°14'4 9.0
2017-Nov-27 12:00N 44°58' E 014°13'5 9.0
2017-Nov-27 11:29N 44°54' E 014°11'5 9.5
2017-Nov-27 11:00N 44°49' E 014°08'5 9.6
2017-Nov-27 10:30N 44°45' E 014°06'5 9.3
2017-Nov-27 10:00N 44°41' E 014°03'5 9.4
2017-Nov-27 09:30N 44°36' E 014°06'5 9.7
2017-Nov-27 09:00N 44°32' E 014°08'5 9.2
2017-Nov-27 08:30N 44°28' E 014°11'82 1.9
2017-Nov-25 12:42N 44°29' E 012°16'0 1.7
2017-Nov-25 12:29N 44°29' E 012°17'3 6.4
2017-Nov-25 12:00N 44°30' E 012°21'3 6.9
2017-Nov-25 11:30N 44°30' E 012°26'510.3
2017-Nov-25 11:00N 44°28' E 012°32'510.2
2017-Nov-25 10:30N 44°27' E 012°39'510.2
2017-Nov-25 10:00N 44°25' E 012°46'510.3
2017-Nov-25 09:30N 44°23' E 012°53'510.4
2017-Nov-25 09:00N 44°21' E 012°59'510.4
2017-Nov-25 08:30N 44°20' E 013°06'510.2
2017-Nov-25 08:00N 44°18' E 013°13'510.4
2017-Nov-25 07:30N 44°15' E 013°19'510.4
2017-Nov-25 07:00N 44°12' E 013°25'510.4
2017-Nov-25 06:30N 44°09' E 013°31'510.3
2017-Nov-25 06:00N 44°05' E 013°36'810.4
2017-Nov-25 05:14N 44°00' E 013°45'510.3
2017-Nov-25 04:44N 43°57' E 013°51'310.3
2017-Nov-25 04:29N 43°56' E 013°54'510.2
2017-Nov-25 04:00N 43°53' E 013°59'8 4.6
2017-Nov-25 02:21N 43°50' E 014°09'3 7.8
2017-Nov-25 02:00N 43°49' E 014°12'4 6.6
2017-Nov-25 01:25N 43°46' E 014°16'438 8.5
2017-Nov-22 21:38N 36°28' E 014°43'212.7
2017-Nov-22 21:30N 36°28' E 014°41'612.6
2017-Nov-22 21:00N 36°29' E 014°33'612.4
2017-Nov-22 20:30N 36°30' E 014°26'612.4
2017-Nov-22 20:00N 36°32' E 014°18'812.4
2017-Nov-22 19:19N 36°34' E 014°08'  
2017-Nov-19 14:04N 35°59' W 005°11'113.0
2017-Nov-19 14:00N 35°59' W 005°12'612.8
2017-Nov-19 13:31N 35°59' W 005°20'612.3
2017-Nov-19 13:01N 35°57' W 005°27'19011.3
2017-Nov-18 20:11N 36°20' W 009°20'612.2
2017-Nov-18 19:40N 36°22' W 009°28'212.5
2017-Nov-18 19:30N 36°24' W 009°29'812.8
2017-Nov-18 18:51N 36°30' W 009°36'512.5
2017-Nov-18 18:29N 36°33' W 009°40'2512.2
2017-Nov-18 16:26N 36°57' W 009°50'1012.3
2017-Nov-18 15:37N 37°07' W 009°53'112.2
2017-Nov-18 15:31N 37°08' W 009°54'712.3
2017-Nov-18 14:54N 37°15' W 009°56'512.4
2017-Nov-18 14:31N 37°20' W 009°57'612.6
2017-Nov-18 14:01N 37°26' W 009°59'713.0
2017-Nov-18 13:30N 37°33' W 010°00'1212.9
2017-Nov-18 12:35N 37°44' W 010°04'  
Track history (hours):
 
Tides and Currents Weather Stations Pressure Air Temp Water Temp Dewpoint Dewpoint Depression Visibility Wind Speed Wind Dir Waves Ship Positions

Jo Spirit

Last reported at 2017-Nov-28 11:39 UTC. Time now 2017-Dec-11 11:35 UTC.
Position N 45°19' E 014°28'.
Warning: this ship's position is 12 days out of date.

Length 107 m; draft 6 m.

Type: Ship (hazmat cat C). MMSI: 257826000.

Date/timePositionNaut miles runAvg speedWind from/ knotsBaromVisibWave heightAir tempDewpointWater temp
2017-Nov-28 11:39N 45°19' E 014°28'1 0.1
2017-Nov-28 00:27N 45°17' E 014°28'0 0.0
2017-Nov-27 15:03N 45°17' E 014°28'0 0.1
2017-Nov-27 15:00N 45°17' E 014°28'1 3.0
2017-Nov-27 14:30N 45°17' E 014°26'3 6.5
2017-Nov-27 14:00N 45°15' E 014°22'510.0
2017-Nov-27 13:29N 45°11' E 014°17'5 9.1
2017-Nov-27 12:55N 45°06' E 014°15'4 9.3
2017-Nov-27 12:30N 45°02' E 014°14'4 9.0
2017-Nov-27 12:00N 44°58' E 014°13'5 9.0
2017-Nov-27 11:29N 44°54' E 014°11'5 9.5
2017-Nov-27 11:00N 44°49' E 014°08'5 9.6
2017-Nov-27 10:30N 44°45' E 014°06'5 9.3
2017-Nov-27 10:00N 44°41' E 014°03'5 9.4
2017-Nov-27 09:30N 44°36' E 014°06'5 9.7
2017-Nov-27 09:00N 44°32' E 014°08'5 9.2
2017-Nov-27 08:30N 44°28' E 014°11'82 1.9
2017-Nov-25 12:42N 44°29' E 012°16'0 1.7
2017-Nov-25 12:29N 44°29' E 012°17'3 6.4
2017-Nov-25 12:00N 44°30' E 012°21'3 6.9
2017-Nov-25 11:30N 44°30' E 012°26'510.3
2017-Nov-25 11:00N 44°28' E 012°32'510.2
2017-Nov-25 10:30N 44°27' E 012°39'510.2
2017-Nov-25 10:00N 44°25' E 012°46'510.3
2017-Nov-25 09:30N 44°23' E 012°53'510.4
2017-Nov-25 09:00N 44°21' E 012°59'510.4
2017-Nov-25 08:30N 44°20' E 013°06'510.2
2017-Nov-25 08:00N 44°18' E 013°13'510.4
2017-Nov-25 07:30N 44°15' E 013°19'510.4
2017-Nov-25 07:00N 44°12' E 013°25'510.4
2017-Nov-25 06:30N 44°09' E 013°31'510.3
2017-Nov-25 06:00N 44°05' E 013°36'810.4
2017-Nov-25 05:14N 44°00' E 013°45'510.3
2017-Nov-25 04:44N 43°57' E 013°51'310.3
2017-Nov-25 04:29N 43°56' E 013°54'510.2
2017-Nov-25 04:00N 43°53' E 013°59'8 4.6
2017-Nov-25 02:21N 43°50' E 014°09'3 7.8
2017-Nov-25 02:00N 43°49' E 014°12'4 6.6
2017-Nov-25 01:25N 43°46' E 014°16'438 8.5
2017-Nov-22 21:38N 36°28' E 014°43'212.7
2017-Nov-22 21:30N 36°28' E 014°41'612.6
2017-Nov-22 21:00N 36°29' E 014°33'612.4
2017-Nov-22 20:30N 36°30' E 014°26'612.4
2017-Nov-22 20:00N 36°32' E 014°18'812.4
2017-Nov-22 19:19N 36°34' E 014°08'  
2017-Nov-19 14:04N 35°59' W 005°11'113.0
2017-Nov-19 14:00N 35°59' W 005°12'612.8
2017-Nov-19 13:31N 35°59' W 005°20'612.3
2017-Nov-19 13:01N 35°57' W 005°27'19011.3
2017-Nov-18 20:11N 36°20' W 009°20'612.2
2017-Nov-18 19:40N 36°22' W 009°28'212.5
2017-Nov-18 19:30N 36°24' W 009°29'812.8
2017-Nov-18 18:51N 36°30' W 009°36'512.5
2017-Nov-18 18:29N 36°33' W 009°40'2512.2
2017-Nov-18 16:26N 36°57' W 009°50'1012.3
2017-Nov-18 15:37N 37°07' W 009°53'112.2
2017-Nov-18 15:31N 37°08' W 009°54'712.3
2017-Nov-18 14:54N 37°15' W 009°56'512.4
2017-Nov-18 14:31N 37°20' W 009°57'612.6
2017-Nov-18 14:01N 37°26' W 009°59'713.0
2017-Nov-18 13:30N 37°33' W 010°00'1212.9
2017-Nov-18 12:35N 37°44' W 010°04'  

Dump ship's entire track history